createdAt,value
2022-10-02T00:01:20.297Z,6.00
2022-10-02T00:03:51.089Z,6.03
2022-10-02T00:06:23.223Z,6.00
2022-10-02T00:08:55.083Z,4.80
2022-10-02T00:11:26.062Z,6.30
2022-10-02T00:13:59.215Z,6.37
2022-10-02T00:16:34.206Z,6.67
2022-10-02T00:19:04.089Z,6.43
2022-10-02T00:21:49.857Z,6.43
2022-10-02T00:24:23.755Z,6.17
2022-10-02T00:26:58.275Z,5.77
2022-10-02T00:29:41.236Z,5.43
2022-10-02T00:32:18.850Z,5.30
2022-10-02T00:35:01.294Z,6.03
2022-10-02T00:37:38.318Z,7.00
2022-10-02T00:40:30.275Z,6.87
2022-10-02T00:43:11.297Z,7.07
2022-10-02T00:46:30.652Z,5.57
2022-10-02T00:49:12.523Z,5.77
2022-10-02T00:52:02.930Z,5.73
2022-10-02T00:54:53.886Z,6.93
2022-10-02T00:57:32.754Z,6.10
2022-10-02T01:00:07.429Z,6.23
2022-10-02T01:02:52.374Z,6.60
2022-10-02T01:05:22.721Z,6.40
2022-10-02T01:07:54.234Z,6.23
2022-10-02T01:10:25.681Z,6.57
2022-10-02T01:12:55.114Z,5.43
2022-10-02T01:15:28.637Z,5.67
2022-10-02T01:17:57.901Z,6.00
2022-10-02T01:20:36.711Z,6.50
2022-10-02T01:23:16.234Z,6.43
2022-10-02T01:25:49.363Z,6.27
2022-10-02T01:28:18.280Z,5.70
2022-10-02T01:30:55.580Z,8.37
2022-10-02T01:33:24.586Z,7.43
2022-10-02T01:35:53.876Z,6.47
2022-10-02T01:38:24.760Z,6.20
2022-10-02T01:40:57.434Z,6.63
2022-10-02T01:43:30.166Z,8.03
2022-10-02T01:46:09.162Z,6.93
2022-10-02T01:48:46.608Z,6.73
2022-10-02T01:51:27.317Z,7.43
2022-10-02T01:54:05.405Z,6.83
2022-10-02T01:56:45.012Z,7.73
2022-10-02T01:59:26.363Z,5.73
2022-10-02T02:02:09.925Z,6.83
2022-10-02T02:04:44.852Z,7.53
2022-10-02T02:07:19.749Z,6.43
2022-10-02T02:09:59.638Z,7.17
2022-10-02T02:12:39.890Z,6.63
2022-10-02T02:15:12.839Z,6.77
2022-10-02T02:17:50.154Z,5.97
2022-10-02T02:20:24.118Z,7.07
2022-10-02T02:22:55.264Z,6.67
2022-10-02T02:25:28.339Z,7.17
2022-10-02T02:28:05.302Z,7.10
2022-10-02T02:30:39.286Z,8.40
2022-10-02T02:33:13.536Z,7.03
2022-10-02T02:35:45.268Z,7.17
2022-10-02T02:38:19.424Z,7.77
2022-10-02T02:40:48.480Z,6.30
2022-10-02T02:43:24.243Z,5.70
2022-10-02T02:45:57.394Z,6.97
2022-10-02T02:48:29.531Z,7.03
2022-10-02T02:51:04.777Z,6.53
2022-10-02T02:53:39.437Z,6.43
2022-10-02T02:56:13.449Z,6.67
2022-10-02T02:58:48.794Z,7.43
2022-10-02T03:01:17.355Z,6.03
2022-10-02T03:03:46.176Z,7.63
2022-10-02T03:06:28.352Z,6.20
2022-10-02T03:08:56.874Z,6.63
2022-10-02T03:11:34.587Z,7.33
2022-10-02T03:14:16.898Z,6.10
2022-10-02T03:16:56.423Z,6.90
2022-10-02T03:19:42.213Z,8.20
2022-10-02T03:22:16.653Z,7.50
2022-10-02T03:24:52.036Z,6.67
2022-10-02T03:27:30.295Z,6.80
2022-10-02T03:30:06.515Z,6.33
2022-10-02T03:32:37.304Z,5.80
2022-10-02T03:35:10.614Z,6.73
2022-10-02T03:37:40.838Z,6.57
2022-10-02T03:40:10.105Z,6.67
2022-10-02T03:42:38.771Z,4.53
2022-10-02T03:45:09.986Z,5.23
2022-10-02T03:47:38.518Z,4.97
2022-10-02T03:50:07.952Z,4.43
2022-10-02T03:52:37.176Z,3.67
2022-10-02T03:55:21.901Z,4.67
2022-10-02T03:57:50.800Z,4.03
2022-10-02T04:00:26.431Z,4.70
2022-10-02T04:02:59.174Z,5.40
2022-10-02T04:05:31.803Z,4.60
2022-10-02T04:08:13.875Z,4.10
2022-10-02T04:10:50.397Z,5.30
2022-10-02T04:13:24.742Z,4.37
2022-10-02T04:16:02.716Z,5.10
2022-10-02T04:18:37.908Z,5.53
2022-10-02T04:21:14.500Z,4.93
2022-10-02T04:23:48.691Z,5.27
2022-10-02T04:26:21.339Z,5.17
2022-10-02T04:28:55.443Z,5.80
2022-10-02T04:31:27.520Z,4.80
2022-10-02T04:34:00.392Z,5.90
2022-10-02T04:36:41.087Z,6.10
2022-10-02T04:39:26.282Z,6.27
2022-10-02T04:42:06.974Z,6.10
2022-10-02T04:44:54.454Z,5.67
2022-10-02T04:47:48.642Z,5.43
2022-10-02T04:50:34.240Z,5.23
2022-10-02T04:53:33.958Z,5.20
2022-10-02T04:56:22.834Z,5.30
2022-10-02T04:59:07.265Z,6.03
2022-10-02T05:01:51.846Z,6.40
2022-10-02T05:04:50.758Z,6.30
2022-10-02T05:07:39.480Z,6.77
2022-10-02T05:10:31.765Z,7.80
2022-10-02T05:13:11.414Z,7.30
2022-10-02T05:16:04.763Z,7.53
2022-10-02T05:19:01.782Z,8.20
2022-10-02T05:22:01.402Z,8.07
2022-10-02T05:24:47.436Z,8.33
2022-10-02T05:27:51.512Z,7.97
2022-10-02T05:30:20.869Z,7.73
2022-10-02T05:33:28.418Z,7.93
2022-10-02T05:36:19.824Z,8.30
2022-10-02T05:39:03.987Z,8.20
2022-10-02T05:41:42.452Z,8.30
2022-10-02T05:44:16.503Z,8.43
2022-10-02T05:46:51.257Z,8.93
2022-10-02T05:49:22.744Z,8.43
2022-10-02T05:51:59.709Z,9.37
2022-10-02T05:54:50.705Z,10.10
2022-10-02T05:57:27.561Z,10.00
2022-10-02T06:00:06.643Z,8.90
2022-10-02T06:02:48.519Z,10.23
2022-10-02T06:05:23.236Z,9.53
2022-10-02T06:07:57.911Z,10.80
2022-10-02T06:10:32.258Z,11.63
2022-10-02T06:13:06.065Z,11.17
2022-10-02T06:15:41.093Z,11.77
2022-10-02T06:18:14.497Z,12.90
2022-10-02T06:20:47.630Z,14.87
2022-10-02T06:23:22.243Z,7.90
2022-10-02T06:25:56.282Z,8.80
2022-10-02T06:28:30.542Z,9.50
2022-10-02T06:31:17.683Z,9.63
2022-10-02T06:33:46.321Z,7.47
2022-10-02T06:36:33.157Z,7.23
2022-10-02T06:39:15.019Z,6.63
2022-10-02T06:41:55.211Z,8.03
2022-10-02T06:44:32.133Z,8.80
2022-10-02T06:47:21.484Z,11.87
2022-10-02T06:50:08.334Z,12.53
2022-10-02T06:52:48.183Z,14.67
2022-10-02T06:55:36.715Z,14.10
2022-10-02T06:58:26.516Z,15.27
2022-10-02T07:01:12.812Z,14.77
2022-10-02T07:03:51.459Z,15.27
2022-10-02T07:06:31.071Z,15.30
2022-10-02T07:09:36.856Z,13.53
2022-10-02T07:12:16.983Z,14.83
2022-10-02T07:15:04.270Z,15.70
2022-10-02T07:17:47.258Z,14.50
2022-10-02T07:20:29.724Z,13.60
2022-10-02T07:23:16.643Z,13.23
2022-10-02T07:26:08.812Z,12.53
2022-10-02T07:28:43.643Z,12.57
2022-10-02T07:31:23.294Z,12.23
2022-10-02T07:34:13.199Z,11.53
2022-10-02T07:36:52.494Z,11.33
2022-10-02T07:39:36.891Z,12.60
2022-10-02T07:42:28.490Z,11.97
2022-10-02T07:45:28.689Z,11.63
2022-10-02T07:48:29.816Z,11.43
2022-10-02T07:51:04.639Z,10.77
2022-10-02T07:53:40.560Z,10.17
2022-10-02T07:56:20.017Z,9.57
2022-10-02T07:58:54.607Z,10.57
2022-10-02T08:01:27.334Z,10.77
2022-10-02T08:04:02.305Z,10.90
2022-10-02T08:06:33.409Z,10.37
2022-10-02T08:09:09.288Z,10.13
2022-10-02T08:11:49.175Z,10.23
2022-10-02T08:14:26.943Z,10.20
2022-10-02T08:17:02.047Z,10.57
2022-10-02T08:19:39.403Z,9.90
2022-10-02T08:22:16.383Z,9.40
2022-10-02T08:24:49.236Z,10.60
2022-10-02T08:27:22.479Z,10.33
2022-10-02T08:29:56.122Z,9.17
2022-10-02T08:32:33.932Z,10.13
2022-10-02T08:35:12.521Z,9.73
2022-10-02T08:37:52.614Z,7.80
2022-10-02T08:40:49.913Z,7.97
2022-10-02T08:44:07.292Z,7.80
2022-10-02T08:47:10.757Z,7.63
2022-10-02T08:50:07.888Z,8.23
2022-10-02T08:53:09.547Z,7.67
2022-10-02T08:56:07.839Z,8.77
2022-10-02T08:59:10.287Z,9.07
2022-10-02T09:02:12.021Z,8.53
2022-10-02T09:05:26.041Z,8.80
2022-10-02T09:08:41.084Z,8.03
2022-10-02T09:11:45.232Z,8.83
2022-10-02T09:14:37.710Z,7.83
2022-10-02T09:17:42.198Z,9.03
2022-10-02T09:20:49.228Z,7.33
2022-10-02T09:23:49.939Z,7.17
2022-10-02T09:26:34.675Z,7.20
2022-10-02T09:29:34.647Z,6.83
2022-10-02T09:32:46.381Z,6.63
2022-10-02T09:35:43.137Z,6.10
2022-10-02T09:38:36.822Z,6.50
2022-10-02T09:41:47.059Z,6.23
2022-10-02T09:44:44.941Z,6.30
2022-10-02T09:48:05.077Z,6.87
2022-10-02T09:51:31.720Z,6.50
2022-10-02T09:54:26.580Z,7.03
2022-10-02T09:57:31.852Z,7.23
2022-10-02T10:00:34.844Z,7.67
2022-10-02T10:03:30.608Z,6.83
2022-10-02T10:06:36.694Z,6.20
2022-10-02T10:09:43.575Z,6.30
2022-10-02T10:13:00.421Z,6.43
2022-10-02T10:16:19.303Z,5.30
2022-10-02T10:19:29.549Z,6.00
2022-10-02T10:22:19.284Z,5.90
2022-10-02T10:25:23.004Z,5.83
2022-10-02T10:28:26.813Z,5.17
2022-10-02T10:31:29.373Z,5.70
2022-10-02T10:34:34.644Z,6.23
2022-10-02T10:37:24.241Z,6.37
2022-10-02T10:40:19.035Z,5.53
2022-10-02T10:43:20.284Z,6.10
2022-10-02T10:46:17.461Z,5.17
2022-10-02T10:49:13.465Z,4.50
2022-10-02T10:51:49.857Z,4.67
2022-10-02T10:54:50.514Z,4.13
2022-10-02T10:57:27.801Z,4.27
2022-10-02T11:00:17.300Z,4.77
2022-10-02T11:03:29.429Z,4.83
2022-10-02T11:06:45.244Z,4.07
2022-10-02T11:09:47.910Z,4.10
2022-10-02T11:12:41.984Z,3.77
2022-10-02T11:15:23.989Z,3.63
2022-10-02T11:18:22.509Z,4.37
2022-10-02T11:21:17.321Z,4.87
2022-10-02T11:24:07.686Z,4.70
2022-10-02T11:26:48.010Z,4.97
2022-10-02T11:29:43.913Z,5.03
2022-10-02T11:32:39.806Z,4.77
2022-10-02T11:35:34.017Z,5.33
2022-10-02T11:38:25.057Z,5.20
2022-10-02T11:41:10.050Z,5.27
2022-10-02T11:44:03.017Z,5.73
2022-10-02T11:47:03.378Z,5.80
2022-10-02T11:50:06.064Z,5.07
2022-10-02T11:52:53.650Z,4.83
2022-10-02T11:55:41.184Z,5.00
2022-10-02T11:58:18.162Z,5.07
2022-10-02T12:01:16.998Z,4.10
2022-10-02T12:03:59.265Z,4.37
2022-10-02T12:06:42.971Z,3.37
2022-10-02T12:09:21.897Z,3.67
2022-10-02T12:12:02.210Z,3.57
2022-10-02T12:14:40.269Z,4.40
2022-10-02T12:17:23.088Z,3.00
2022-10-02T12:20:20.178Z,3.63
2022-10-02T12:23:16.313Z,3.67
2022-10-02T12:26:10.717Z,4.03
2022-10-02T12:28:50.889Z,4.73
2022-10-02T12:31:33.504Z,3.23
2022-10-02T12:34:09.806Z,3.73
2022-10-02T12:36:56.647Z,3.70
2022-10-02T12:39:41.882Z,3.87
2022-10-02T12:42:32.939Z,3.63
2022-10-02T12:45:25.203Z,3.33
2022-10-02T12:48:11.373Z,3.30
2022-10-02T12:50:55.143Z,3.53
2022-10-02T12:53:59.323Z,3.60
2022-10-02T12:56:53.686Z,3.83
2022-10-02T12:59:30.489Z,3.13
2022-10-02T13:02:59.143Z,4.40
2022-10-02T13:05:51.900Z,3.90
2022-10-02T13:08:46.989Z,3.37
2022-10-02T13:11:27.771Z,3.80
2022-10-02T13:14:20.307Z,3.80
2022-10-02T13:17:10.261Z,4.07
2022-10-02T13:19:49.865Z,3.60
2022-10-02T13:22:31.434Z,3.30
2022-10-02T13:25:23.880Z,3.17
2022-10-02T13:28:04.854Z,2.97
2022-10-02T13:30:39.355Z,3.23
2022-10-02T13:33:22.171Z,2.80
2022-10-02T13:36:16.476Z,3.90
2022-10-02T13:39:08.695Z,4.37
2022-10-02T13:41:51.109Z,4.33
2022-10-02T13:44:34.028Z,3.90
2022-10-02T13:47:23.353Z,3.67
2022-10-02T13:50:17.605Z,3.83
2022-10-02T13:52:58.662Z,3.93
2022-10-02T13:55:31.431Z,3.60
2022-10-02T13:58:32.218Z,4.40
2022-10-02T14:01:13.138Z,3.47
2022-10-02T14:04:03.850Z,4.57
2022-10-02T14:06:38.858Z,4.90
2022-10-02T14:09:25.186Z,4.33
2022-10-02T14:12:24.115Z,3.67
2022-10-02T14:15:20.409Z,4.33
2022-10-02T14:18:17.163Z,3.27
2022-10-02T14:20:54.383Z,3.40
2022-10-02T14:23:51.927Z,3.77
2022-10-02T14:26:33.910Z,4.40
2022-10-02T14:29:36.432Z,4.40
2022-10-02T14:32:19.314Z,3.80
2022-10-02T14:35:09.695Z,2.70
2022-10-02T14:38:15.714Z,3.63
2022-10-02T14:40:54.573Z,3.50
2022-10-02T14:43:54.679Z,3.57
2022-10-02T14:46:38.223Z,4.03
2022-10-02T14:49:36.852Z,3.30
2022-10-02T14:52:39.917Z,3.43
2022-10-02T14:55:21.149Z,3.43
2022-10-02T14:58:22.707Z,2.93
2022-10-02T15:01:05.083Z,3.20
2022-10-02T15:03:50.473Z,3.50
2022-10-02T15:06:31.658Z,3.17
2022-10-02T15:09:04.222Z,3.00
2022-10-02T15:11:55.359Z,3.03
2022-10-02T15:14:33.219Z,2.97
2022-10-02T15:17:21.729Z,3.47
2022-10-02T15:19:57.086Z,3.80
2022-10-02T15:22:30.167Z,3.63
2022-10-02T15:25:00.954Z,3.43
2022-10-02T15:27:42.224Z,3.13
2022-10-02T15:30:22.113Z,2.77
2022-10-02T15:33:15.441Z,2.87
2022-10-02T15:36:11.330Z,3.70
2022-10-02T15:39:23.724Z,2.73
2022-10-02T15:42:05.005Z,2.63
2022-10-02T15:45:13.732Z,2.87
2022-10-02T15:47:59.206Z,3.30
2022-10-02T15:50:40.940Z,2.97
2022-10-02T15:53:43.475Z,2.97
2022-10-02T15:56:44.020Z,2.80
2022-10-02T15:59:31.997Z,2.60
2022-10-02T16:02:18.873Z,3.27
2022-10-02T16:05:04.482Z,3.40
2022-10-02T16:08:00.684Z,3.27
2022-10-02T16:10:38.766Z,2.83
2022-10-02T16:13:29.884Z,3.47
2022-10-02T16:16:08.214Z,2.80
2022-10-02T16:18:55.648Z,4.10
2022-10-02T16:21:39.207Z,3.07
2022-10-02T16:24:31.205Z,2.60
2022-10-02T16:27:32.757Z,3.00
2022-10-02T16:30:13.622Z,2.93
2022-10-02T16:32:58.881Z,2.77
2022-10-02T16:36:00.707Z,3.13
2022-10-02T16:38:42.248Z,3.07
2022-10-02T16:41:36.046Z,3.03
2022-10-02T16:44:24.669Z,3.27
2022-10-02T16:46:56.997Z,2.60
2022-10-02T16:49:33.283Z,3.60
2022-10-02T16:52:11.911Z,3.17
2022-10-02T16:54:47.367Z,2.70
2022-10-02T16:57:25.364Z,3.63
2022-10-02T17:00:04.045Z,3.40
2022-10-02T17:02:43.652Z,3.07
2022-10-02T17:05:26.222Z,2.97
2022-10-02T17:08:02.318Z,2.47
2022-10-02T17:10:39.564Z,3.00
2022-10-02T17:13:29.239Z,2.60
2022-10-02T17:16:07.126Z,2.97
2022-10-02T17:18:42.884Z,2.93
2022-10-02T17:21:17.128Z,3.23
2022-10-02T17:23:59.784Z,4.10
2022-10-02T17:26:36.898Z,3.87
2022-10-02T17:29:14.433Z,3.57
2022-10-02T17:31:52.265Z,3.47
2022-10-02T17:34:24.335Z,3.23
2022-10-02T17:37:04.015Z,3.07
2022-10-02T17:39:52.109Z,3.07
2022-10-02T17:42:34.105Z,3.07
2022-10-02T17:45:19.783Z,3.07
2022-10-02T17:47:58.063Z,3.60
2022-10-02T17:50:48.803Z,3.23
2022-10-02T17:53:49.603Z,2.90
2022-10-02T17:56:33.949Z,2.57
2022-10-02T17:59:21.283Z,2.80
2022-10-02T18:02:02.483Z,2.77
2022-10-02T18:04:46.028Z,3.43
2022-10-02T18:07:32.811Z,2.80
2022-10-02T18:10:13.378Z,2.93
2022-10-02T18:13:06.641Z,3.30
2022-10-02T18:15:51.432Z,3.27
2022-10-02T18:18:27.220Z,3.03
2022-10-02T18:21:09.377Z,3.27
2022-10-02T18:24:07.446Z,3.83
2022-10-02T18:26:47.712Z,3.67
2022-10-02T18:29:33.614Z,3.23
2022-10-02T18:32:21.997Z,3.33
2022-10-02T18:35:15.187Z,3.53
2022-10-02T18:37:57.494Z,3.27
2022-10-02T18:40:29.998Z,3.37
2022-10-02T18:43:21.291Z,3.40
2022-10-02T18:46:02.210Z,3.43
2022-10-02T18:48:45.165Z,3.67
2022-10-02T18:51:32.280Z,3.80
2022-10-02T18:54:17.970Z,3.80
2022-10-02T18:56:59.864Z,3.67
2022-10-02T18:59:40.751Z,3.93
2022-10-02T19:02:28.561Z,3.50
2022-10-02T19:05:21.926Z,3.57
2022-10-02T19:07:57.393Z,3.57
2022-10-02T19:10:30.027Z,3.20
2022-10-02T19:13:02.410Z,3.97
2022-10-02T19:15:33.188Z,5.53
2022-10-02T19:18:04.257Z,4.47
2022-10-02T19:20:41.915Z,4.97
2022-10-02T19:23:38.069Z,4.20
2022-10-02T19:26:51.144Z,4.23
2022-10-02T19:29:29.082Z,3.20
2022-10-02T19:32:02.834Z,4.50
2022-10-02T19:34:33.256Z,3.90
2022-10-02T19:37:07.453Z,3.77
2022-10-02T19:39:38.350Z,4.07
2022-10-02T19:42:13.369Z,3.70
2022-10-02T19:44:48.874Z,4.13
2022-10-02T19:47:27.368Z,4.37
2022-10-02T19:49:57.909Z,3.43
2022-10-02T19:52:37.183Z,4.10
2022-10-02T19:55:19.110Z,5.67
2022-10-02T19:57:54.111Z,3.20
2022-10-02T20:00:22.723Z,4.20
2022-10-02T20:02:55.847Z,3.93
2022-10-02T20:05:27.181Z,3.77
2022-10-02T20:08:04.217Z,3.20
2022-10-02T20:10:39.318Z,2.87
2022-10-02T20:13:17.648Z,3.53
2022-10-02T20:16:07.553Z,2.93
2022-10-02T20:18:37.270Z,3.10
2022-10-02T20:21:08.907Z,4.57
2022-10-02T20:23:41.850Z,3.40
2022-10-02T20:26:15.341Z,3.73
2022-10-02T20:28:52.153Z,4.83
2022-10-02T20:31:26.840Z,3.83
2022-10-02T20:33:59.014Z,4.23
2022-10-02T20:36:31.387Z,3.73
2022-10-02T20:39:03.884Z,3.50
2022-10-02T20:41:39.966Z,3.47
2022-10-02T20:44:09.809Z,3.23
2022-10-02T20:47:26.516Z,4.93
2022-10-02T20:50:18.164Z,4.00
2022-10-02T20:53:31.348Z,4.37
2022-10-02T20:56:05.509Z,3.47
2022-10-02T20:58:56.605Z,3.03
2022-10-02T21:01:37.486Z,3.50
2022-10-02T21:04:47.015Z,3.20
2022-10-02T21:07:40.583Z,4.67
2022-10-02T21:10:41.135Z,2.70
2022-10-02T21:13:54.550Z,3.63
2022-10-02T21:16:43.249Z,4.67
2022-10-02T21:19:48.418Z,4.40
2022-10-02T21:22:57.224Z,4.33
2022-10-02T21:26:10.744Z,3.43
2022-10-02T21:29:03.309Z,4.70
2022-10-02T21:31:47.653Z,4.30
2022-10-02T21:34:31.988Z,3.77
2022-10-02T21:37:09.627Z,4.47
2022-10-02T21:40:14.863Z,3.77
2022-10-02T21:43:08.201Z,3.47
2022-10-02T21:46:23.106Z,3.77
2022-10-02T21:49:24.172Z,4.70
2022-10-02T21:52:43.785Z,4.83
2022-10-02T21:55:53.789Z,4.17
2022-10-02T21:58:50.947Z,4.00
2022-10-02T22:02:08.577Z,4.87
2022-10-02T22:05:34.794Z,4.90
2022-10-02T22:08:14.389Z,5.27
2022-10-02T22:10:55.436Z,4.47
2022-10-02T22:13:31.182Z,4.17
2022-10-02T22:16:18.780Z,4.50
2022-10-02T22:18:53.083Z,4.67
2022-10-02T22:21:36.553Z,4.17
2022-10-02T22:24:25.973Z,4.63
2022-10-02T22:27:23.394Z,4.27
2022-10-02T22:29:56.239Z,4.57
2022-10-02T22:33:04.998Z,3.90
2022-10-02T22:35:47.398Z,4.17
2022-10-02T22:38:21.503Z,4.40
2022-10-02T22:40:53.653Z,5.17
2022-10-02T22:43:30.704Z,4.20
2022-10-02T22:46:04.688Z,3.60
2022-10-02T22:48:39.217Z,3.97
2022-10-02T22:51:16.480Z,5.00
2022-10-02T22:53:52.428Z,5.33
2022-10-02T22:56:29.923Z,6.90
2022-10-02T22:59:12.360Z,4.53
2022-10-02T23:01:47.812Z,4.73
2022-10-02T23:04:28.972Z,4.57
2022-10-02T23:07:02.624Z,4.70
2022-10-02T23:09:41.049Z,4.73
2022-10-02T23:12:16.345Z,4.43
2022-10-02T23:15:01.878Z,4.43
2022-10-02T23:17:38.293Z,5.67
2022-10-02T23:20:13.257Z,4.63
2022-10-02T23:22:49.624Z,5.57
2022-10-02T23:25:27.474Z,5.20
2022-10-02T23:28:01.583Z,4.40
2022-10-02T23:30:37.093Z,4.30
2022-10-02T23:33:15.038Z,3.97
2022-10-02T23:35:50.036Z,4.53
2022-10-02T23:38:23.985Z,6.23
2022-10-02T23:41:24.020Z,5.87
2022-10-02T23:44:05.683Z,5.57
2022-10-02T23:46:41.366Z,5.27
2022-10-02T23:49:12.933Z,5.73
2022-10-02T23:51:56.202Z,6.40
2022-10-02T23:54:40.382Z,6.40
2022-10-02T23:57:21.878Z,9.27
